createdAt,value
2023-03-01T00:01:57.165Z,21.97
2023-03-01T00:04:25.818Z,25.87
2023-03-01T00:06:54.523Z,25.53
2023-03-01T00:09:23.267Z,26.23
2023-03-01T00:11:53.346Z,22.20
2023-03-01T00:14:23.111Z,23.73
2023-03-01T00:16:51.883Z,24.73
2023-03-01T00:19:23.029Z,23.03
2023-03-01T00:21:51.900Z,23.47
2023-03-01T00:24:20.620Z,24.43
2023-03-01T00:26:49.375Z,26.10
2023-03-01T00:29:19.539Z,21.73
2023-03-01T00:31:48.288Z,21.60
2023-03-01T00:34:17.109Z,24.57
2023-03-01T00:36:45.832Z,23.07
2023-03-01T00:39:17.187Z,23.17
2023-03-01T00:41:46.545Z,19.43
2023-03-01T00:44:15.725Z,25.13
2023-03-01T00:46:45.833Z,22.63
2023-03-01T00:49:15.216Z,21.47
2023-03-01T00:51:44.209Z,23.70
2023-03-01T00:54:12.953Z,24.97
2023-03-01T00:56:41.747Z,23.03
2023-03-01T00:59:10.437Z,20.50
2023-03-01T01:01:39.305Z,23.07
2023-03-01T01:04:13.108Z,25.97
2023-03-01T01:06:45.183Z,23.13
2023-03-01T01:09:19.183Z,20.93
2023-03-01T01:11:50.427Z,21.60
2023-03-01T01:14:20.644Z,20.83
2023-03-01T01:16:50.447Z,24.07
2023-03-01T01:19:21.127Z,19.60
2023-03-01T01:21:50.804Z,21.60
2023-03-01T01:24:21.892Z,20.60
2023-03-01T01:26:50.704Z,23.40
2023-03-01T01:29:19.732Z,21.23
2023-03-01T01:31:48.452Z,23.03
2023-03-01T01:34:20.994Z,20.07
2023-03-01T01:36:51.826Z,21.10
2023-03-01T01:39:20.601Z,21.40
2023-03-01T01:41:49.864Z,23.13
2023-03-01T01:44:24.475Z,22.63
2023-03-01T01:47:00.956Z,22.63
2023-03-01T01:49:39.062Z,24.50
2023-03-01T01:52:16.098Z,26.20
2023-03-01T01:54:52.666Z,24.67
2023-03-01T01:57:28.688Z,26.30
2023-03-01T02:00:04.990Z,23.47
2023-03-01T02:02:44.438Z,25.23
2023-03-01T02:05:21.864Z,24.23
2023-03-01T02:07:51.178Z,27.10
2023-03-01T02:10:23.286Z,26.93
2023-03-01T02:12:52.484Z,24.07
2023-03-01T02:15:21.217Z,24.03
2023-03-01T02:17:49.994Z,23.53
2023-03-01T02:20:31.825Z,26.50
2023-03-01T02:23:02.186Z,24.37
2023-03-01T02:25:42.993Z,25.23
2023-03-01T02:28:27.094Z,26.20
2023-03-01T02:31:13.946Z,21.73
2023-03-01T02:33:44.590Z,23.57
2023-03-01T02:36:20.966Z,24.77
2023-03-01T02:38:52.356Z,23.43
2023-03-01T02:41:24.025Z,23.53
2023-03-01T02:43:54.719Z,23.27
2023-03-01T02:46:26.700Z,24.40
2023-03-01T02:48:59.475Z,25.10
2023-03-01T02:51:47.492Z,24.43
2023-03-01T02:54:27.589Z,23.93
2023-03-01T02:56:58.830Z,25.03
2023-03-01T02:59:36.159Z,24.67
2023-03-01T03:02:04.934Z,26.43
2023-03-01T03:04:33.760Z,26.37
2023-03-01T03:07:02.702Z,26.90
2023-03-01T03:09:31.498Z,26.00
2023-03-01T03:12:00.181Z,26.10
2023-03-01T03:14:30.500Z,25.53
2023-03-01T03:16:59.285Z,26.33
2023-03-01T03:19:28.555Z,24.10
2023-03-01T03:21:57.319Z,24.57
2023-03-01T03:24:25.937Z,23.57
2023-03-01T03:26:54.618Z,23.30
2023-03-01T03:29:23.426Z,21.20
2023-03-01T03:31:53.639Z,22.37
2023-03-01T03:34:22.351Z,24.93
2023-03-01T03:36:57.719Z,22.60
2023-03-01T03:39:26.500Z,23.87
2023-03-01T03:41:55.621Z,26.10
2023-03-01T03:44:24.539Z,26.20
2023-03-01T03:46:54.736Z,24.63
2023-03-01T03:49:23.496Z,23.67
2023-03-01T03:51:52.155Z,26.70
2023-03-01T03:54:20.836Z,23.30
2023-03-01T03:56:49.564Z,26.17
2023-03-01T03:59:18.237Z,25.93
2023-03-01T04:01:47.032Z,22.63
2023-03-01T04:04:19.953Z,25.37
2023-03-01T04:06:49.584Z,25.80
2023-03-01T04:09:18.337Z,25.57
2023-03-01T04:11:47.054Z,28.30
2023-03-01T04:14:15.951Z,23.97
2023-03-01T04:16:44.690Z,26.10
2023-03-01T04:19:13.310Z,31.90
2023-03-01T04:21:43.392Z,25.27
2023-03-01T04:24:12.177Z,23.33
2023-03-01T04:26:40.840Z,26.13
2023-03-01T04:29:09.612Z,27.40
2023-03-01T04:31:38.428Z,25.90
2023-03-01T04:34:07.096Z,25.80
2023-03-01T04:36:38.475Z,24.70
2023-03-01T04:39:13.315Z,24.20
2023-03-01T04:41:44.251Z,28.77
2023-03-01T04:44:13.710Z,25.10
2023-03-01T04:46:42.433Z,25.13
2023-03-01T04:49:11.051Z,26.57
2023-03-01T04:51:39.800Z,28.67
2023-03-01T04:54:09.921Z,23.97
2023-03-01T04:56:38.761Z,25.63
2023-03-01T04:59:08.941Z,27.40
2023-03-01T05:01:38.731Z,24.53
2023-03-01T05:04:08.401Z,37.43
2023-03-01T05:06:37.116Z,26.17
2023-03-01T05:09:06.112Z,23.83
2023-03-01T05:11:36.972Z,31.43
2023-03-01T05:14:06.611Z,40.50
2023-03-01T05:16:36.543Z,60.13
2023-03-01T05:19:12.781Z,41.70
2023-03-01T05:22:01.837Z,50.93
2023-03-01T05:24:32.930Z,30.93
2023-03-01T05:27:04.784Z,97.27
2023-03-01T05:29:35.974Z,50.97
2023-03-01T05:32:05.586Z,42.30
2023-03-01T05:34:37.723Z,38.67
2023-03-01T05:37:08.703Z,39.53
2023-03-01T05:39:40.014Z,29.03
2023-03-01T05:42:16.703Z,26.57
2023-03-01T05:44:46.305Z,33.13
2023-03-01T05:47:15.164Z,29.27
2023-03-01T05:49:43.835Z,27.37
2023-03-01T05:52:13.661Z,34.50
2023-03-01T05:54:42.540Z,31.50
2023-03-01T05:57:12.733Z,30.30
2023-03-01T05:59:41.448Z,32.33
2023-03-01T06:02:10.279Z,34.83
2023-03-01T06:04:39.357Z,33.93
2023-03-01T06:07:14.347Z,34.47
2023-03-01T06:09:43.088Z,32.17
2023-03-01T06:12:14.005Z,33.40
2023-03-01T06:14:43.279Z,32.17
2023-03-01T06:17:15.384Z,30.17
2023-03-01T06:19:44.364Z,31.40
2023-03-01T06:22:13.111Z,31.13
2023-03-01T06:24:41.917Z,26.53
2023-03-01T06:27:10.587Z,34.30
2023-03-01T06:29:41.822Z,31.33
2023-03-01T06:32:11.446Z,28.87
2023-03-01T06:34:40.553Z,29.60
2023-03-01T06:37:09.887Z,29.57
2023-03-01T06:39:38.870Z,48.97
2023-03-01T06:42:07.663Z,46.53
2023-03-01T06:44:36.281Z,41.67
2023-03-01T06:47:07.236Z,71.97
2023-03-01T06:49:35.938Z,53.20
2023-03-01T06:52:04.976Z,36.53
2023-03-01T06:54:33.671Z,44.50
2023-03-01T06:57:02.477Z,39.73
2023-03-01T06:59:31.450Z,49.73
2023-03-01T07:02:00.388Z,42.77
2023-03-01T07:04:31.635Z,42.83
2023-03-01T07:07:00.323Z,26.57
2023-03-01T07:09:30.974Z,30.57
2023-03-01T07:12:00.454Z,27.80
2023-03-01T07:14:29.452Z,27.83
2023-03-01T07:16:58.363Z,37.83
2023-03-01T07:19:27.326Z,34.30
2023-03-01T07:21:57.871Z,32.47
2023-03-01T07:24:26.679Z,31.40
2023-03-01T07:26:55.762Z,31.60
2023-03-01T07:29:24.474Z,39.60
2023-03-01T07:31:53.221Z,31.13
2023-03-01T07:34:21.962Z,28.27
2023-03-01T07:36:50.737Z,29.30
2023-03-01T07:39:20.870Z,25.50
2023-03-01T07:41:49.548Z,26.23
2023-03-01T07:44:23.350Z,27.67
2023-03-01T07:46:53.477Z,28.43
2023-03-01T07:49:22.484Z,27.17
2023-03-01T07:51:51.217Z,24.00
2023-03-01T07:54:21.353Z,30.90
2023-03-01T07:56:50.072Z,25.17
2023-03-01T07:59:18.780Z,28.53
2023-03-01T08:01:47.550Z,26.33
2023-03-01T08:04:16.188Z,27.00
2023-03-01T08:06:44.903Z,27.23
2023-03-01T08:09:13.535Z,27.43
2023-03-01T08:11:43.640Z,37.83
2023-03-01T08:14:12.754Z,28.43
2023-03-01T08:16:41.974Z,33.47
2023-03-01T08:19:13.697Z,34.10
2023-03-01T08:21:42.825Z,35.83
2023-03-01T08:24:12.314Z,32.33
2023-03-01T08:26:42.442Z,33.03
2023-03-01T08:29:11.074Z,36.90
2023-03-01T08:31:42.191Z,36.77
2023-03-01T08:34:14.732Z,48.53
2023-03-01T08:36:46.342Z,37.90
2023-03-01T08:39:18.056Z,41.13
2023-03-01T08:41:49.576Z,39.23
2023-03-01T08:44:18.898Z,44.00
2023-03-01T08:46:47.732Z,35.13
2023-03-01T08:49:21.154Z,35.77
2023-03-01T08:51:50.810Z,44.73
2023-03-01T08:54:21.756Z,39.10
2023-03-01T08:56:52.169Z,39.23
2023-03-01T08:59:21.372Z,37.93
2023-03-01T09:01:50.059Z,38.63
2023-03-01T09:04:18.850Z,41.63
2023-03-01T09:06:47.500Z,41.87
2023-03-01T09:09:18.829Z,35.37
2023-03-01T09:11:48.382Z,41.90
2023-03-01T09:14:18.595Z,46.27
2023-03-01T09:16:47.824Z,46.23
2023-03-01T09:19:16.718Z,38.33
2023-03-01T09:21:53.054Z,41.73
2023-03-01T09:24:24.683Z,49.57
2023-03-01T09:26:57.584Z,53.97
2023-03-01T09:29:28.074Z,49.77
2023-03-01T09:31:57.215Z,50.13
2023-03-01T09:34:26.215Z,40.23
2023-03-01T09:36:55.007Z,36.20
2023-03-01T09:39:23.825Z,40.13
2023-03-01T09:42:03.197Z,38.17
2023-03-01T09:44:43.784Z,35.20
2023-03-01T09:47:20.837Z,41.50
2023-03-01T09:50:06.930Z,37.10
2023-03-01T09:52:43.873Z,38.03
2023-03-01T09:55:19.986Z,38.70
2023-03-01T09:57:55.374Z,37.90
2023-03-01T10:00:42.175Z,37.53
2023-03-01T10:03:22.118Z,34.70
2023-03-01T10:06:01.962Z,47.93
2023-03-01T10:08:39.895Z,37.40
2023-03-01T10:11:25.091Z,52.30
2023-03-01T10:14:03.815Z,38.37
2023-03-01T10:16:46.029Z,37.13
2023-03-01T10:19:24.142Z,35.63
2023-03-01T10:21:55.288Z,39.67
2023-03-01T10:24:24.097Z,42.87
2023-03-01T10:26:59.030Z,37.00
2023-03-01T10:29:38.245Z,32.30
2023-03-01T10:32:08.641Z,34.73
2023-03-01T10:34:38.962Z,33.27
2023-03-01T10:37:15.044Z,34.57
2023-03-01T10:40:00.522Z,39.77
2023-03-01T10:42:33.056Z,32.97
2023-03-01T10:45:27.005Z,33.67
2023-03-01T10:48:13.825Z,32.10
2023-03-01T10:50:44.698Z,29.40
2023-03-01T10:53:36.736Z,36.37
2023-03-01T10:56:09.677Z,30.80
2023-03-01T10:58:41.032Z,30.10
2023-03-01T11:01:28.634Z,30.73
2023-03-01T11:04:16.329Z,35.47
2023-03-01T11:06:45.660Z,33.87
2023-03-01T11:09:20.728Z,42.60
2023-03-01T11:11:55.301Z,35.07
2023-03-01T11:14:28.060Z,37.83
2023-03-01T11:17:07.006Z,33.87
2023-03-01T11:19:37.190Z,32.90
2023-03-01T11:22:14.560Z,31.93
2023-03-01T11:24:49.333Z,36.23
2023-03-01T11:27:27.390Z,31.77
2023-03-01T11:30:05.768Z,29.63
2023-03-01T11:32:43.438Z,28.83
2023-03-01T11:35:22.733Z,30.80
2023-03-01T11:38:12.268Z,29.03
2023-03-01T11:40:49.003Z,29.53
2023-03-01T11:43:28.951Z,32.83
2023-03-01T11:46:37.457Z,35.80
2023-03-01T11:49:45.663Z,26.80
2023-03-01T11:52:33.793Z,34.07
2023-03-01T11:55:27.075Z,35.97
2023-03-01T11:58:34.464Z,31.73
2023-03-01T12:01:27.995Z,35.27
2023-03-01T12:04:33.283Z,31.80
2023-03-01T12:07:10.487Z,30.80
2023-03-01T12:10:02.599Z,35.13
2023-03-01T12:12:47.123Z,27.80
2023-03-01T12:15:57.825Z,28.20
2023-03-01T12:19:00.870Z,31.30
2023-03-01T12:21:49.192Z,27.27
2023-03-01T12:24:42.079Z,25.47
2023-03-01T12:27:41.128Z,26.47
2023-03-01T12:30:34.943Z,28.53
2023-03-01T12:33:28.200Z,29.77
2023-03-01T12:36:30.230Z,27.10
2023-03-01T12:39:23.692Z,26.80
2023-03-01T12:42:08.490Z,26.67
2023-03-01T12:45:04.311Z,27.70
2023-03-01T12:47:53.848Z,28.03
2023-03-01T12:50:26.502Z,26.13
2023-03-01T12:52:58.916Z,27.03
2023-03-01T12:55:35.321Z,26.10
2023-03-01T12:58:22.301Z,25.40
2023-03-01T13:01:13.681Z,22.23
2023-03-01T13:04:20.826Z,20.87
2023-03-01T13:07:07.043Z,24.97
2023-03-01T13:09:47.269Z,20.50
2023-03-01T13:13:04.293Z,17.73
2023-03-01T13:15:36.869Z,19.27
2023-03-01T13:18:33.099Z,20.80
2023-03-01T13:21:06.634Z,21.60
2023-03-01T13:23:41.289Z,23.17
2023-03-01T13:26:17.602Z,27.80
2023-03-01T13:29:01.114Z,25.57
2023-03-01T13:32:05.014Z,23.17
2023-03-01T13:34:56.906Z,22.33
2023-03-01T13:37:38.872Z,26.77
2023-03-01T13:41:00.272Z,30.07
2023-03-01T13:43:34.779Z,22.60
2023-03-01T13:46:12.292Z,21.17
2023-03-01T13:48:42.586Z,31.70
2023-03-01T13:51:14.814Z,23.93
2023-03-01T13:53:47.181Z,29.13
2023-03-01T13:56:21.566Z,24.97
2023-03-01T13:58:57.367Z,23.40
2023-03-01T14:01:31.682Z,31.53
2023-03-01T14:04:01.892Z,26.30
2023-03-01T14:06:36.692Z,27.30
2023-03-01T14:13:15.879Z,35.20
2023-03-01T14:16:15.670Z,23.30
2023-03-01T14:18:57.763Z,21.47
2023-03-01T14:21:27.176Z,25.97
2023-03-01T14:23:57.537Z,29.70
2023-03-01T14:26:26.667Z,30.03
2023-03-01T14:28:56.565Z,23.97
2023-03-01T14:31:52.093Z,24.17
2023-03-01T14:34:25.400Z,35.43
2023-03-01T14:36:54.181Z,34.90
2023-03-01T14:39:27.857Z,27.67
2023-03-01T14:42:00.606Z,117.70
2023-03-01T14:44:34.996Z,26.80
2023-03-01T14:47:03.736Z,54.17
2023-03-01T14:49:34.810Z,31.93
2023-03-01T14:52:08.387Z,23.47
2023-03-01T14:54:45.417Z,33.97
2023-03-01T14:57:19.358Z,26.90
2023-03-01T15:04:57.462Z,31.93
2023-03-01T15:07:31.627Z,26.20
2023-03-01T15:10:00.015Z,27.10
2023-03-01T15:12:38.921Z,26.93
2023-03-01T15:15:39.499Z,26.23
2023-03-01T15:18:18.107Z,27.60
2023-03-01T15:24:34.273Z,26.40
2023-03-01T15:27:07.003Z,27.70
2023-03-01T15:29:41.703Z,29.77
2023-03-01T15:32:31.652Z,27.63
2023-03-01T15:35:01.650Z,27.33
2023-03-01T15:37:48.568Z,26.90
2023-03-01T15:40:32.474Z,30.37
2023-03-01T15:43:02.168Z,29.77
2023-03-01T15:45:32.513Z,29.80
2023-03-01T15:48:06.219Z,33.17
2023-03-01T15:50:41.047Z,30.60
2023-03-01T15:53:15.881Z,25.63
2023-03-01T15:55:47.946Z,30.87
2023-03-01T15:58:21.629Z,31.53
2023-03-01T16:01:02.138Z,33.90
2023-03-01T16:03:31.570Z,28.30
2023-03-01T16:06:02.224Z,34.43
2023-03-01T16:08:31.254Z,32.37
2023-03-01T16:11:04.692Z,34.20
2023-03-01T16:13:34.234Z,29.67
2023-03-01T16:16:03.024Z,32.73
2023-03-01T16:18:32.931Z,35.13
2023-03-01T16:21:01.927Z,37.57
2023-03-01T16:23:30.798Z,33.50
2023-03-01T16:26:03.153Z,34.53
2023-03-01T16:28:31.757Z,38.43
2023-03-01T16:31:02.475Z,32.77
2023-03-01T16:33:33.275Z,33.83
2023-03-01T16:36:10.037Z,30.67
2023-03-01T16:38:42.048Z,31.33
2023-03-01T16:41:16.827Z,32.33
2023-03-01T16:43:47.524Z,32.87
2023-03-01T16:46:20.398Z,33.73
2023-03-01T16:48:50.387Z,31.10
2023-03-01T16:51:19.907Z,36.60
2023-03-01T16:53:49.451Z,33.87
2023-03-01T16:56:21.137Z,32.47
2023-03-01T16:58:49.933Z,31.57
2023-03-01T17:01:24.505Z,36.30
2023-03-01T17:03:53.930Z,39.13
2023-03-01T17:06:25.936Z,48.30
2023-03-01T17:08:54.863Z,46.20
2023-03-01T17:11:27.050Z,48.27
2023-03-01T17:13:55.792Z,44.87
2023-03-01T17:16:25.076Z,53.20
2023-03-01T17:18:53.850Z,54.90
2023-03-01T17:21:22.750Z,60.77
2023-03-01T17:23:53.031Z,61.97
2023-03-01T17:26:21.757Z,52.83
2023-03-01T17:28:52.844Z,53.50
2023-03-01T17:31:22.278Z,44.73
2023-03-01T17:33:52.369Z,44.10
2023-03-01T17:36:21.276Z,40.27
2023-03-01T17:38:50.024Z,38.27
2023-03-01T17:41:19.297Z,40.00
2023-03-01T17:43:48.499Z,35.30
2023-03-01T17:46:19.275Z,33.67
2023-03-01T17:48:49.766Z,37.13
2023-03-01T17:51:21.572Z,35.47
2023-03-01T17:53:50.480Z,32.83
2023-03-01T17:56:19.232Z,30.13
2023-03-01T17:58:48.000Z,32.03
2023-03-01T18:01:23.718Z,34.27
2023-03-01T18:03:53.658Z,33.43
2023-03-01T18:06:25.869Z,39.17
2023-03-01T18:08:55.566Z,33.03
2023-03-01T18:11:26.740Z,33.73
2023-03-01T18:13:57.401Z,36.23
2023-03-01T18:16:32.115Z,36.67
2023-03-01T18:19:03.344Z,34.00
2023-03-01T18:21:32.874Z,33.37
2023-03-01T18:24:01.997Z,39.43
2023-03-01T18:26:33.675Z,38.13
2023-03-01T18:29:07.927Z,35.97
2023-03-01T18:31:38.393Z,35.50
2023-03-01T18:34:07.517Z,36.33
2023-03-01T18:36:38.366Z,35.47
2023-03-01T18:39:09.645Z,39.30
2023-03-01T18:41:39.763Z,36.00
2023-03-01T18:44:08.526Z,37.00
2023-03-01T18:46:40.132Z,34.67
2023-03-01T18:49:10.505Z,37.40
2023-03-01T18:51:44.199Z,35.40
2023-03-01T18:54:14.284Z,33.90
2023-03-01T18:56:43.155Z,37.03
2023-03-01T18:59:11.944Z,33.80
2023-03-01T19:01:43.650Z,32.67
2023-03-01T19:04:13.833Z,35.50
2023-03-01T19:07:56.786Z,36.17
2023-03-01T19:10:25.957Z,33.30
2023-03-01T19:12:54.719Z,37.27
2023-03-01T19:15:25.521Z,33.40
2023-03-01T19:17:57.544Z,34.20
2023-03-01T19:20:26.725Z,37.03
2023-03-01T19:22:56.044Z,37.17
2023-03-01T19:25:26.815Z,36.10
2023-03-01T19:27:55.796Z,35.60
2023-03-01T19:30:24.981Z,37.47
2023-03-01T19:32:55.731Z,35.90
2023-03-01T19:35:26.634Z,33.27
2023-03-01T19:38:00.433Z,36.87
2023-03-01T19:40:31.024Z,35.30
2023-03-01T19:43:03.144Z,35.73
2023-03-01T19:45:34.492Z,36.30
2023-03-01T19:48:06.595Z,37.40
2023-03-01T19:50:38.569Z,39.17
2023-03-01T19:53:08.386Z,42.13
2023-03-01T19:55:38.830Z,39.93
2023-03-01T19:58:13.837Z,37.27
2023-03-01T20:00:47.759Z,38.23
2023-03-01T20:03:19.294Z,37.53
2023-03-01T20:05:52.534Z,39.77
2023-03-01T20:08:22.814Z,39.10
2023-03-01T20:10:52.235Z,36.67
2023-03-01T20:13:21.817Z,38.47
2023-03-01T20:15:51.155Z,37.27
2023-03-01T20:18:21.284Z,38.17
2023-03-01T20:20:52.987Z,39.60
2023-03-01T20:23:23.348Z,41.87
2023-03-01T20:25:53.981Z,35.57
2023-03-01T20:28:23.056Z,36.60
2023-03-01T20:30:51.917Z,35.00
2023-03-01T20:33:22.406Z,37.97
2023-03-01T20:35:51.975Z,37.83
2023-03-01T20:38:20.820Z,40.23
2023-03-01T20:40:49.578Z,36.30
2023-03-01T20:43:18.362Z,37.20
2023-03-01T20:45:47.146Z,34.47
2023-03-01T20:48:15.911Z,34.83
2023-03-01T20:50:46.115Z,35.20
2023-03-01T20:53:15.350Z,35.47
2023-03-01T20:55:50.391Z,47.10
2023-03-01T20:58:19.149Z,43.77
2023-03-01T21:00:47.941Z,36.83
2023-03-01T21:03:16.706Z,39.20
2023-03-01T21:05:46.791Z,39.30
2023-03-01T21:08:15.465Z,34.90
2023-03-01T21:10:44.231Z,37.70
2023-03-01T21:13:12.892Z,35.37
2023-03-01T21:15:41.586Z,33.33
2023-03-01T21:18:13.236Z,34.13
2023-03-01T21:20:42.781Z,32.87
2023-03-01T21:23:13.004Z,39.50
2023-03-01T21:25:42.592Z,34.33
2023-03-01T21:28:11.440Z,35.50
2023-03-01T21:30:43.512Z,36.13
2023-03-01T21:33:12.548Z,37.03
2023-03-01T21:35:43.689Z,31.03
2023-03-01T21:38:14.521Z,33.13
2023-03-01T21:40:43.492Z,34.63
2023-03-01T21:43:12.427Z,32.43
2023-03-01T21:45:41.461Z,31.63
2023-03-01T21:48:10.455Z,32.77
2023-03-01T21:50:41.722Z,38.27
2023-03-01T21:53:10.526Z,29.70
2023-03-01T21:55:48.901Z,33.97
2023-03-01T21:58:17.982Z,34.07
2023-03-01T22:00:47.348Z,32.53
2023-03-01T22:03:16.884Z,35.50
2023-03-01T22:05:55.554Z,32.63
2023-03-01T22:08:24.395Z,36.50
2023-03-01T22:10:54.814Z,34.30
2023-03-01T22:13:23.513Z,42.80
2023-03-01T22:15:53.233Z,43.97
2023-03-01T22:18:21.849Z,38.53
2023-03-01T22:20:50.580Z,31.23
2023-03-01T22:23:19.227Z,36.10
2023-03-01T22:25:47.940Z,35.30
2023-03-01T22:28:18.357Z,35.70
2023-03-01T22:30:47.077Z,32.90
2023-03-01T22:33:15.800Z,30.97
2023-03-01T22:35:45.012Z,33.00
2023-03-01T22:38:13.883Z,30.40
2023-03-01T22:40:42.768Z,30.20
2023-03-01T22:43:11.568Z,31.33
2023-03-01T22:45:41.801Z,32.20
2023-03-01T22:48:10.801Z,33.27
2023-03-01T22:50:43.058Z,31.27
2023-03-01T22:53:12.327Z,29.30
2023-03-01T22:55:41.519Z,28.07
2023-03-01T22:58:10.800Z,29.57
2023-03-01T23:00:40.940Z,30.50
2023-03-01T23:03:09.678Z,33.57
2023-03-01T23:05:38.469Z,26.93
2023-03-01T23:08:07.132Z,32.27
2023-03-01T23:10:35.883Z,27.00
2023-03-01T23:13:04.523Z,30.33
2023-03-01T23:15:33.189Z,93.07
2023-03-01T23:18:03.254Z,133.73
2023-03-01T23:20:31.995Z,140.13
2023-03-01T23:23:01.621Z,119.33
2023-03-01T23:25:30.351Z,77.03
2023-03-01T23:27:59.078Z,116.50
2023-03-01T23:30:27.803Z,108.10
2023-03-01T23:32:56.964Z,66.20
2023-03-01T23:35:27.222Z,32.07
2023-03-01T23:37:55.987Z,27.47
2023-03-01T23:40:24.614Z,68.37
2023-03-01T23:42:53.378Z,106.30
2023-03-01T23:45:22.034Z,78.03
2023-03-01T23:47:50.846Z,58.13
2023-03-01T23:50:19.797Z,54.20
2023-03-01T23:52:50.321Z,55.07
2023-03-01T23:55:19.377Z,39.13
2023-03-01T23:57:48.669Z,35.43
